createdAt,value
2023-01-19T00:00:53.694Z,4.76
2023-01-19T00:03:27.594Z,4.78
2023-01-19T00:05:54.508Z,4.73
2023-01-19T00:08:21.633Z,4.71
2023-01-19T00:10:51.352Z,4.65
2023-01-19T00:13:18.886Z,4.70
2023-01-19T00:15:45.746Z,4.67
2023-01-19T00:18:12.883Z,4.65
2023-01-19T00:20:40.493Z,4.70
2023-01-19T00:23:08.258Z,4.65
2023-01-19T00:25:35.887Z,4.64
2023-01-19T00:28:03.215Z,4.62
2023-01-19T00:30:30.169Z,4.64
2023-01-19T00:32:57.244Z,4.60
2023-01-19T00:35:24.147Z,4.62
2023-01-19T00:37:51.228Z,4.57
2023-01-19T00:40:18.492Z,4.59
2023-01-19T00:42:45.990Z,4.51
2023-01-19T00:45:15.381Z,4.51
2023-01-19T00:47:42.703Z,4.48
2023-01-19T00:50:14.399Z,4.44
2023-01-19T00:52:42.123Z,4.48
2023-01-19T00:55:11.394Z,4.44
2023-01-19T00:57:39.581Z,4.32
2023-01-19T01:00:12.117Z,4.31
2023-01-19T01:02:40.665Z,4.37
2023-01-19T01:05:08.670Z,4.29
2023-01-19T01:07:44.663Z,4.36
2023-01-19T01:10:12.836Z,4.23
2023-01-19T01:12:40.247Z,4.21
2023-01-19T01:15:09.334Z,4.06
2023-01-19T01:17:36.785Z,4.05
2023-01-19T01:20:04.892Z,4.00
2023-01-19T01:22:31.957Z,3.98
2023-01-19T01:24:58.724Z,3.91
2023-01-19T01:27:25.781Z,3.96
2023-01-19T01:29:52.552Z,3.98
2023-01-19T01:32:19.645Z,3.93
2023-01-19T01:34:46.436Z,3.82
2023-01-19T01:37:13.474Z,3.77
2023-01-19T01:39:40.240Z,3.76
2023-01-19T01:42:17.794Z,3.77
2023-01-19T01:44:52.180Z,3.85
2023-01-19T01:47:42.284Z,3.83
2023-01-19T01:50:20.529Z,3.74
2023-01-19T01:53:07.275Z,3.76
2023-01-19T01:55:40.233Z,3.70
2023-01-19T01:58:10.090Z,3.64
2023-01-19T02:00:57.761Z,3.55
2023-01-19T02:03:26.825Z,3.55
2023-01-19T02:06:00.305Z,3.52
2023-01-19T02:09:06.507Z,3.47
2023-01-19T02:11:52.873Z,3.32
2023-01-19T02:14:19.969Z,3.28
2023-01-19T02:16:47.302Z,3.29
2023-01-19T02:19:25.057Z,3.15
2023-01-19T02:22:11.966Z,3.08
2023-01-19T02:24:39.113Z,3.20
2023-01-19T02:27:07.932Z,3.19
2023-01-19T02:29:35.409Z,3.12
2023-01-19T02:32:03.180Z,3.13
2023-01-19T02:34:30.579Z,3.16
2023-01-19T02:37:03.407Z,3.22
2023-01-19T02:39:35.374Z,3.16
2023-01-19T02:42:17.291Z,3.16
2023-01-19T02:44:48.936Z,3.19
2023-01-19T02:47:16.334Z,3.10
2023-01-19T02:49:43.406Z,3.12
2023-01-19T02:52:18.016Z,3.10
2023-01-19T02:55:12.757Z,3.06
2023-01-19T02:58:04.607Z,3.07
2023-01-19T03:00:57.491Z,3.02
2023-01-19T03:03:24.282Z,3.01
2023-01-19T03:06:01.598Z,2.99
2023-01-19T03:08:39.555Z,3.08
2023-01-19T03:11:10.274Z,2.95
2023-01-19T03:13:54.220Z,2.94
2023-01-19T03:16:29.753Z,2.99
2023-01-19T03:19:08.209Z,2.99
2023-01-19T03:21:39.159Z,3.08
2023-01-19T03:24:08.521Z,3.16
2023-01-19T03:26:44.062Z,3.23
2023-01-19T03:29:13.718Z,3.28
2023-01-19T03:31:45.644Z,3.21
2023-01-19T03:34:15.399Z,3.23
2023-01-19T03:37:01.926Z,3.15
2023-01-19T03:39:29.161Z,3.11
2023-01-19T03:42:05.033Z,3.06
2023-01-19T03:44:37.953Z,3.05
2023-01-19T03:47:07.425Z,3.03
2023-01-19T03:49:36.293Z,2.95
2023-01-19T03:52:04.344Z,3.03
2023-01-19T03:54:31.936Z,2.94
2023-01-19T03:56:58.976Z,2.75
2023-01-19T03:59:25.872Z,2.67
2023-01-19T04:01:53.013Z,2.70
2023-01-19T04:04:19.788Z,2.80
2023-01-19T04:06:46.889Z,2.81
2023-01-19T04:09:13.732Z,2.81
2023-01-19T04:11:40.777Z,2.79
2023-01-19T04:14:07.508Z,2.69
2023-01-19T04:16:34.634Z,2.70
2023-01-19T04:19:01.411Z,2.84
2023-01-19T04:21:28.441Z,2.63
2023-01-19T04:23:55.176Z,2.59
2023-01-19T04:26:22.420Z,2.60
2023-01-19T04:28:49.185Z,2.59
2023-01-19T04:31:16.372Z,2.67
2023-01-19T04:33:43.177Z,2.59
2023-01-19T04:36:10.297Z,2.63
2023-01-19T04:38:37.146Z,2.59
2023-01-19T04:41:04.368Z,2.58
2023-01-19T04:43:31.112Z,2.62
2023-01-19T04:45:59.070Z,2.68
2023-01-19T04:48:25.948Z,2.71
2023-01-19T04:50:53.013Z,2.67
2023-01-19T04:53:19.834Z,2.61
2023-01-19T04:55:46.914Z,2.59
2023-01-19T04:58:13.976Z,2.50
2023-01-19T05:00:41.167Z,2.54
2023-01-19T05:03:07.972Z,2.55
2023-01-19T05:05:35.117Z,2.52
2023-01-19T05:08:01.858Z,2.57
2023-01-19T05:10:28.920Z,2.46
2023-01-19T05:12:55.837Z,2.42
2023-01-19T05:15:23.563Z,2.38
2023-01-19T05:17:50.353Z,2.39
2023-01-19T05:20:17.597Z,2.37
2023-01-19T05:22:52.815Z,2.44
2023-01-19T05:25:19.875Z,2.53
2023-01-19T05:27:46.690Z,2.55
2023-01-19T05:30:14.409Z,2.69
2023-01-19T05:32:41.195Z,2.53
2023-01-19T05:35:08.971Z,2.55
2023-01-19T05:37:35.866Z,2.59
2023-01-19T05:40:03.341Z,2.55
2023-01-19T05:42:32.093Z,2.57
2023-01-19T05:45:00.458Z,2.62
2023-01-19T05:47:29.469Z,2.62
2023-01-19T05:49:57.226Z,2.59
2023-01-19T05:52:25.193Z,2.59
2023-01-19T05:54:52.332Z,2.64
2023-01-19T05:57:19.151Z,2.72
2023-01-19T05:59:46.430Z,2.73
2023-01-19T06:02:13.323Z,2.75
2023-01-19T06:04:40.519Z,2.70
2023-01-19T06:07:07.300Z,2.72
2023-01-19T06:09:34.419Z,2.79
2023-01-19T06:12:01.508Z,2.86
2023-01-19T06:14:28.551Z,2.86
2023-01-19T06:16:55.373Z,2.78
2023-01-19T06:19:22.449Z,2.89
2023-01-19T06:21:52.205Z,2.87
2023-01-19T06:24:19.792Z,2.87
2023-01-19T06:26:46.676Z,2.86
2023-01-19T06:29:14.563Z,2.77
2023-01-19T06:31:41.903Z,2.80
2023-01-19T06:34:09.615Z,2.75
2023-01-19T06:36:36.861Z,2.81
2023-01-19T06:39:06.008Z,2.85
2023-01-19T06:41:34.078Z,2.87
2023-01-19T06:44:01.936Z,2.78
2023-01-19T06:46:29.669Z,2.79
2023-01-19T06:48:56.772Z,2.81
2023-01-19T06:51:24.032Z,2.83
2023-01-19T06:53:51.164Z,2.90
2023-01-19T06:56:17.917Z,2.95
2023-01-19T06:58:47.620Z,3.03
2023-01-19T07:01:14.753Z,3.13
2023-01-19T07:03:41.990Z,3.17
2023-01-19T07:06:09.151Z,3.35
2023-01-19T07:08:37.301Z,3.23
2023-01-19T07:11:26.057Z,3.05
2023-01-19T07:13:56.310Z,3.12
2023-01-19T07:16:23.467Z,3.15
2023-01-19T07:18:51.331Z,3.15
2023-01-19T07:21:19.230Z,3.20
2023-01-19T07:23:50.599Z,3.11
2023-01-19T07:26:21.636Z,3.18
2023-01-19T07:28:49.051Z,3.23
2023-01-19T07:31:16.548Z,3.28
2023-01-19T07:33:44.254Z,3.32
2023-01-19T07:36:11.522Z,3.33
2023-01-19T07:38:38.601Z,3.41
2023-01-19T07:41:08.022Z,3.42
2023-01-19T07:43:35.471Z,3.35
2023-01-19T07:46:04.017Z,3.32
2023-01-19T07:48:31.200Z,3.38
2023-01-19T07:51:05.641Z,3.42
2023-01-19T07:53:33.059Z,3.42
2023-01-19T07:56:00.200Z,3.39
2023-01-19T07:58:27.703Z,3.44
2023-01-19T08:00:54.750Z,3.45
2023-01-19T08:03:21.902Z,3.43
2023-01-19T08:05:52.783Z,3.44
2023-01-19T08:08:20.292Z,3.53
2023-01-19T08:10:50.382Z,3.42
2023-01-19T08:13:17.862Z,3.49
2023-01-19T08:15:44.878Z,3.50
2023-01-19T08:18:12.039Z,3.57
2023-01-19T08:20:38.877Z,3.61
2023-01-19T08:23:05.950Z,3.53
2023-01-19T08:25:33.970Z,3.57
2023-01-19T08:28:05.634Z,3.64
2023-01-19T08:30:33.321Z,3.67
2023-01-19T08:33:08.326Z,3.60
2023-01-19T08:35:37.649Z,3.53
2023-01-19T08:38:05.969Z,3.60
2023-01-19T08:40:34.908Z,3.76
2023-01-19T08:43:05.782Z,3.72
2023-01-19T08:45:32.893Z,3.76
2023-01-19T08:48:00.790Z,3.71
2023-01-19T08:50:32.133Z,3.84
2023-01-19T08:53:01.289Z,3.70
2023-01-19T08:55:30.025Z,3.72
2023-01-19T08:58:00.156Z,3.73
2023-01-19T09:00:27.887Z,3.72
2023-01-19T09:02:56.592Z,3.63
2023-01-19T09:05:24.044Z,3.70
2023-01-19T09:07:54.196Z,3.60
2023-01-19T09:10:20.986Z,3.58
2023-01-19T09:12:48.136Z,3.65
2023-01-19T09:15:14.948Z,3.60
2023-01-19T09:17:42.430Z,3.73
2023-01-19T09:20:09.891Z,3.73
2023-01-19T09:22:37.163Z,3.75
2023-01-19T09:25:04.393Z,3.78
2023-01-19T09:27:31.504Z,3.73
2023-01-19T09:29:58.789Z,3.77
2023-01-19T09:32:26.001Z,3.68
2023-01-19T09:34:53.966Z,3.65
2023-01-19T09:37:21.023Z,3.71
2023-01-19T09:39:47.836Z,3.68
2023-01-19T09:42:29.167Z,3.75
2023-01-19T09:44:55.979Z,3.77
2023-01-19T09:47:27.247Z,3.82
2023-01-19T09:50:01.249Z,3.88
2023-01-19T09:52:30.748Z,3.92
2023-01-19T09:54:58.987Z,3.84
2023-01-19T09:57:27.724Z,3.99
2023-01-19T09:59:59.722Z,3.74
2023-01-19T10:02:36.336Z,3.70
2023-01-19T10:05:26.544Z,3.65
2023-01-19T10:08:15.453Z,3.47
2023-01-19T10:10:47.980Z,3.32
2023-01-19T10:13:17.725Z,3.39
2023-01-19T10:16:14.468Z,3.43
2023-01-19T10:18:47.858Z,3.42
2023-01-19T10:21:28.276Z,3.19
2023-01-19T10:24:18.715Z,3.12
2023-01-19T10:26:53.254Z,3.08
2023-01-19T10:29:37.796Z,2.99
2023-01-19T10:32:21.322Z,3.03
2023-01-19T10:34:50.070Z,2.97
2023-01-19T10:37:31.811Z,2.84
2023-01-19T10:40:09.519Z,2.76
2023-01-19T10:42:38.385Z,2.74
2023-01-19T10:45:16.270Z,2.78
2023-01-19T10:47:45.117Z,2.84
2023-01-19T10:50:28.748Z,2.72
2023-01-19T10:52:59.375Z,2.72
2023-01-19T10:55:30.572Z,2.86
2023-01-19T10:57:59.097Z,2.84
2023-01-19T11:00:32.224Z,2.71
2023-01-19T11:02:59.626Z,2.69
2023-01-19T11:05:30.326Z,2.55
2023-01-19T11:07:57.596Z,2.53
2023-01-19T11:10:30.033Z,2.56
2023-01-19T11:13:02.103Z,2.64
2023-01-19T11:15:44.331Z,2.60
2023-01-19T11:18:30.445Z,2.55
2023-01-19T11:21:10.293Z,2.57
2023-01-19T11:23:43.149Z,2.68
2023-01-19T11:26:26.420Z,2.52
2023-01-19T11:28:56.050Z,2.63
2023-01-19T11:31:29.148Z,2.51
2023-01-19T11:34:17.268Z,2.54
2023-01-19T11:36:56.637Z,2.47
2023-01-19T11:39:26.589Z,2.48
2023-01-19T11:42:01.515Z,2.50
2023-01-19T11:44:30.605Z,2.49
2023-01-19T11:47:03.452Z,2.56
2023-01-19T11:49:45.471Z,2.56
2023-01-19T11:52:24.048Z,2.57
2023-01-19T11:55:14.600Z,2.72
2023-01-19T11:57:50.921Z,2.77
2023-01-19T12:00:38.452Z,2.79
2023-01-19T12:03:17.661Z,2.56
2023-01-19T12:05:49.980Z,2.58
2023-01-19T12:08:24.440Z,2.56
2023-01-19T12:10:54.224Z,2.41
2023-01-19T12:13:26.229Z,2.45
2023-01-19T12:16:23.548Z,2.45
2023-01-19T12:19:01.333Z,2.57
2023-01-19T12:21:28.655Z,2.49
2023-01-19T12:24:16.394Z,2.56
2023-01-19T12:26:54.237Z,2.61
2023-01-19T12:29:24.751Z,2.81
2023-01-19T12:32:13.312Z,2.82
2023-01-19T12:34:47.237Z,2.72
2023-01-19T12:37:43.013Z,2.60
2023-01-19T12:40:23.703Z,2.48
2023-01-19T12:42:58.846Z,2.63
2023-01-19T12:45:32.010Z,2.59
2023-01-19T12:48:01.975Z,2.56
2023-01-19T12:50:38.090Z,2.51
2023-01-19T12:53:15.903Z,2.50
2023-01-19T12:55:46.778Z,2.40
2023-01-19T12:58:21.679Z,2.48
2023-01-19T13:00:51.870Z,2.52
2023-01-19T13:03:18.633Z,2.50
2023-01-19T13:05:56.451Z,2.51
2023-01-19T13:08:29.920Z,2.54
2023-01-19T13:11:03.190Z,2.55
2023-01-19T13:13:36.461Z,2.56
2023-01-19T13:16:18.845Z,2.67
2023-01-19T13:18:57.675Z,2.54
2023-01-19T13:21:30.667Z,2.58
2023-01-19T13:24:00.476Z,2.50
2023-01-19T13:26:30.932Z,2.56
2023-01-19T13:29:05.817Z,2.68
2023-01-19T13:31:37.476Z,2.62
2023-01-19T13:34:11.630Z,2.67
2023-01-19T13:36:44.759Z,2.64
2023-01-19T13:39:18.515Z,2.84
2023-01-19T13:41:47.096Z,2.63
2023-01-19T13:44:36.377Z,2.62
2023-01-19T13:47:04.592Z,2.65
2023-01-19T13:49:35.986Z,2.65
2023-01-19T13:52:19.750Z,2.65
2023-01-19T13:54:57.953Z,2.52
2023-01-19T13:57:41.184Z,2.63
2023-01-19T14:00:16.993Z,2.67
2023-01-19T14:03:23.897Z,2.62
2023-01-19T14:05:52.749Z,2.71
2023-01-19T14:08:21.386Z,2.50
2023-01-19T14:10:53.912Z,2.41
2023-01-19T14:13:29.864Z,2.44
2023-01-19T14:16:04.719Z,2.46
2023-01-19T14:18:33.857Z,2.36
2023-01-19T14:21:15.052Z,2.32
2023-01-19T14:23:55.095Z,2.32
2023-01-19T14:26:42.978Z,2.21
2023-01-19T14:29:09.976Z,2.17
2023-01-19T14:31:48.997Z,2.16
2023-01-19T14:34:36.395Z,2.26
2023-01-19T14:37:06.391Z,2.18
2023-01-19T14:39:36.066Z,2.23
2023-01-19T14:42:06.826Z,2.23
2023-01-19T14:44:36.113Z,2.25
2023-01-19T14:47:04.744Z,2.17
2023-01-19T14:49:35.656Z,2.25
2023-01-19T14:52:20.777Z,2.26
2023-01-19T14:54:48.866Z,2.15
2023-01-19T14:57:15.753Z,2.13
2023-01-19T14:59:48.284Z,1.95
2023-01-19T15:02:15.761Z,1.97
2023-01-19T15:04:42.913Z,2.01
2023-01-19T15:07:18.177Z,1.85
2023-01-19T15:09:46.912Z,1.77
2023-01-19T15:12:17.378Z,1.91
2023-01-19T15:14:45.445Z,1.88
2023-01-19T15:17:25.251Z,1.86
2023-01-19T15:19:54.091Z,1.93
2023-01-19T15:22:24.398Z,1.90
2023-01-19T15:24:51.437Z,2.01
2023-01-19T15:27:18.279Z,1.93
2023-01-19T15:29:46.110Z,1.98
2023-01-19T15:32:14.697Z,1.92
2023-01-19T15:34:42.143Z,1.82
2023-01-19T15:37:08.949Z,1.74
2023-01-19T15:39:36.184Z,1.74
2023-01-19T15:42:03.325Z,1.75
2023-01-19T15:44:30.589Z,1.75
2023-01-19T15:46:57.598Z,1.73
2023-01-19T15:49:24.870Z,1.82
2023-01-19T15:51:51.902Z,1.86
2023-01-19T15:54:19.448Z,1.78
2023-01-19T15:56:46.304Z,1.78
2023-01-19T15:59:13.460Z,1.79
2023-01-19T16:01:41.066Z,1.73
2023-01-19T16:04:11.012Z,1.67
2023-01-19T16:06:38.114Z,1.64
2023-01-19T16:09:05.446Z,1.78
2023-01-19T16:11:34.601Z,1.84
2023-01-19T16:14:01.855Z,1.84
2023-01-19T16:16:29.514Z,1.89
2023-01-19T16:18:57.340Z,1.81
2023-01-19T16:21:24.572Z,1.77
2023-01-19T16:23:52.013Z,1.80
2023-01-19T16:26:29.507Z,1.81
2023-01-19T16:29:02.361Z,1.85
2023-01-19T16:31:29.766Z,1.87
2023-01-19T16:33:56.945Z,1.79
2023-01-19T16:36:28.862Z,1.83
2023-01-19T16:38:59.957Z,1.86
2023-01-19T16:41:27.664Z,1.82
2023-01-19T16:43:57.377Z,1.83
2023-01-19T16:46:30.451Z,1.76
2023-01-19T16:49:17.357Z,1.91
2023-01-19T16:51:44.291Z,1.88
2023-01-19T16:54:16.780Z,1.83
2023-01-19T16:56:44.042Z,1.81
2023-01-19T16:59:13.006Z,1.81
2023-01-19T17:01:40.058Z,1.76
2023-01-19T17:04:07.659Z,1.87
2023-01-19T17:06:34.708Z,1.76
2023-01-19T17:09:02.052Z,1.83
2023-01-19T17:11:31.033Z,1.70
2023-01-19T17:14:00.276Z,1.70
2023-01-19T17:16:28.879Z,1.68
2023-01-19T17:18:58.313Z,1.70
2023-01-19T17:21:25.701Z,1.70
2023-01-19T17:23:54.459Z,1.79
2023-01-19T17:26:22.365Z,1.85
2023-01-19T17:28:49.430Z,1.79
2023-01-19T17:31:19.613Z,1.74
2023-01-19T17:33:49.275Z,1.73
2023-01-19T17:36:22.552Z,1.70
2023-01-19T17:38:50.265Z,1.60
2023-01-19T17:41:19.992Z,1.65
2023-01-19T17:43:47.650Z,1.63
2023-01-19T17:46:14.495Z,1.61
2023-01-19T17:48:41.629Z,1.61
2023-01-19T17:51:12.946Z,1.66
2023-01-19T17:53:41.983Z,1.74
2023-01-19T17:56:14.332Z,1.79
2023-01-19T17:58:41.437Z,1.79
2023-01-19T18:01:15.946Z,1.79
2023-01-19T18:03:43.345Z,1.81
2023-01-19T18:06:10.248Z,1.74
2023-01-19T18:08:39.712Z,1.73
2023-01-19T18:11:07.376Z,1.74
2023-01-19T18:13:34.992Z,1.75
2023-01-19T18:16:04.209Z,1.84
2023-01-19T18:18:31.997Z,1.84
2023-01-19T18:21:00.228Z,1.68
2023-01-19T18:23:28.425Z,1.69
2023-01-19T18:26:02.947Z,1.69
2023-01-19T18:28:31.152Z,1.70
2023-01-19T18:30:58.251Z,1.77
2023-01-19T18:33:26.664Z,1.67
2023-01-19T18:35:54.524Z,1.62
2023-01-19T18:38:24.616Z,1.64
2023-01-19T18:41:12.745Z,1.49
2023-01-19T18:43:40.151Z,1.44
2023-01-19T18:46:07.424Z,1.51
2023-01-19T18:48:35.256Z,1.48
2023-01-19T18:51:13.200Z,1.44
2023-01-19T18:53:40.737Z,1.41
2023-01-19T18:56:08.498Z,1.37
2023-01-19T18:58:38.168Z,1.49
2023-01-19T19:01:16.442Z,1.42
2023-01-19T19:03:43.531Z,1.34
2023-01-19T19:06:10.323Z,1.40
2023-01-19T19:08:37.499Z,1.30
2023-01-19T19:11:08.340Z,1.30
2023-01-19T19:13:38.232Z,1.27
2023-01-19T19:16:07.146Z,1.34
2023-01-19T19:18:35.360Z,1.37
2023-01-19T19:21:07.587Z,1.46
2023-01-19T19:23:35.284Z,1.54
2023-01-19T19:26:07.428Z,1.42
2023-01-19T19:28:36.760Z,1.48
2023-01-19T19:31:15.490Z,1.41
2023-01-19T19:33:42.938Z,1.31
2023-01-19T19:36:10.413Z,1.24
2023-01-19T19:38:37.787Z,1.26
2023-01-19T19:41:08.766Z,1.32
2023-01-19T19:43:36.492Z,1.24
2023-01-19T19:46:09.597Z,1.26
2023-01-19T19:48:39.244Z,1.26
2023-01-19T19:51:19.678Z,1.24
2023-01-19T19:53:48.936Z,1.14
2023-01-19T19:56:19.867Z,1.12
2023-01-19T19:58:47.849Z,1.24
2023-01-19T20:01:25.922Z,1.30
2023-01-19T20:03:58.784Z,1.30
2023-01-19T20:06:27.132Z,1.24
2023-01-19T20:08:56.218Z,1.20
2023-01-19T20:11:27.696Z,1.14
2023-01-19T20:13:55.123Z,1.10
2023-01-19T20:16:23.204Z,1.12
2023-01-19T20:18:54.000Z,1.10
2023-01-19T20:21:25.283Z,1.14
2023-01-19T20:23:53.644Z,1.06
2023-01-19T20:26:25.209Z,1.03
2023-01-19T20:28:53.795Z,0.99
2023-01-19T20:31:26.922Z,1.04
2023-01-19T20:33:56.304Z,0.90
2023-01-19T20:36:24.611Z,0.96
2023-01-19T20:38:53.357Z,0.87
2023-01-19T20:41:20.724Z,0.92
2023-01-19T20:43:47.902Z,0.81
2023-01-19T20:46:14.953Z,0.80
2023-01-19T20:48:42.038Z,0.73
2023-01-19T20:51:11.756Z,0.75
2023-01-19T20:53:40.736Z,0.84
2023-01-19T20:56:11.579Z,0.74
2023-01-19T20:58:39.246Z,0.87
2023-01-19T21:01:14.219Z,0.90
2023-01-19T21:03:42.000Z,0.92
2023-01-19T21:06:09.527Z,0.87
2023-01-19T21:08:37.397Z,0.92
2023-01-19T21:11:04.984Z,0.97
2023-01-19T21:13:32.157Z,1.04
2023-01-19T21:16:00.007Z,1.11
2023-01-19T21:18:28.013Z,1.00
2023-01-19T21:20:57.409Z,0.91
2023-01-19T21:23:26.370Z,0.99
2023-01-19T21:25:55.686Z,1.04
2023-01-19T21:28:23.739Z,0.96
2023-01-19T21:30:51.756Z,1.06
2023-01-19T21:33:19.791Z,1.17
2023-01-19T21:36:04.479Z,1.13
2023-01-19T21:38:32.010Z,1.01
2023-01-19T21:40:58.901Z,1.03
2023-01-19T21:43:26.611Z,1.03
2023-01-19T21:45:53.380Z,1.03
2023-01-19T21:48:20.549Z,1.06
2023-01-19T21:50:57.065Z,1.10
2023-01-19T21:53:24.140Z,1.15
2023-01-19T21:55:50.913Z,1.22
2023-01-19T21:58:18.016Z,1.15
2023-01-19T22:00:45.442Z,0.98
2023-01-19T22:03:12.629Z,0.77
2023-01-19T22:05:39.457Z,0.83
2023-01-19T22:08:06.695Z,0.92
2023-01-19T22:10:37.472Z,0.87
2023-01-19T22:13:06.634Z,0.97
2023-01-19T22:15:33.761Z,1.00
2023-01-19T22:18:01.097Z,1.08
2023-01-19T22:20:28.336Z,1.11
2023-01-19T22:22:56.336Z,1.06
2023-01-19T22:25:27.858Z,1.00
2023-01-19T22:27:55.786Z,1.03
2023-01-19T22:30:22.686Z,1.07
2023-01-19T22:32:49.785Z,1.07
2023-01-19T22:35:16.660Z,1.04
2023-01-19T22:37:43.729Z,1.04
2023-01-19T22:40:11.247Z,0.93
2023-01-19T22:42:38.329Z,1.03
2023-01-19T22:45:05.496Z,1.00
2023-01-19T22:47:32.527Z,1.05
2023-01-19T22:49:59.307Z,0.99
2023-01-19T22:52:26.373Z,1.16
2023-01-19T22:54:56.295Z,1.13
2023-01-19T22:57:23.366Z,1.10
2023-01-19T22:59:50.157Z,0.93
2023-01-19T23:02:18.627Z,0.95
2023-01-19T23:04:47.344Z,0.94
2023-01-19T23:07:14.447Z,1.08
2023-01-19T23:09:41.331Z,1.00
2023-01-19T23:12:08.376Z,0.97
2023-01-19T23:14:36.228Z,0.97
2023-01-19T23:17:03.306Z,1.02
2023-01-19T23:19:30.097Z,1.03
2023-01-19T23:21:57.260Z,1.00
2023-01-19T23:24:24.075Z,1.05
2023-01-19T23:26:51.174Z,1.11
2023-01-19T23:29:18.206Z,1.05
2023-01-19T23:31:47.605Z,1.12
2023-01-19T23:34:15.091Z,1.02
2023-01-19T23:36:43.066Z,1.05
2023-01-19T23:39:18.759Z,1.02
2023-01-19T23:41:46.064Z,1.04
2023-01-19T23:44:13.170Z,1.10
2023-01-19T23:46:40.341Z,1.18
2023-01-19T23:49:07.114Z,1.12
2023-01-19T23:51:34.582Z,0.94
2023-01-19T23:54:01.493Z,0.87
2023-01-19T23:56:33.993Z,0.77
2023-01-19T23:59:07.065Z,0.82
